sensor_id;sensor_type;location;lat;lon;timestamp;temperature;humidity
75931;DHT22;64609;47.052;15.462;2022-12-29T00:02:08;5.10;67.50
75931;DHT22;64609;47.052;15.462;2022-12-29T00:04:33;5.00;67.50
75931;DHT22;64609;47.052;15.462;2022-12-29T00:06:59;5.00;67.50
75931;DHT22;64609;47.052;15.462;2022-12-29T00:09:25;5.00;67.30
75931;DHT22;64609;47.052;15.462;2022-12-29T00:11:51;5.00;67.70
75931;DHT22;64609;47.052;15.462;2022-12-29T00:14:17;5.00;67.70
75931;DHT22;64609;47.052;15.462;2022-12-29T00:17:02;5.00;67.50
75931;DHT22;64609;47.052;15.462;2022-12-29T00:19:28;5.00;67.20
75931;DHT22;64609;47.052;15.462;2022-12-29T00:22:13;4.90;67.00
75931;DHT22;64609;47.052;15.462;2022-12-29T00:24:58;4.80;67.20
75931;DHT22;64609;47.052;15.462;2022-12-29T00:27:28;4.80;67.40
75931;DHT22;64609;47.052;15.462;2022-12-29T00:30:16;4.70;66.80
75931;DHT22;64609;47.052;15.462;2022-12-29T00:33:01;4.70;67.20
75931;DHT22;64609;47.052;15.462;2022-12-29T00:35:54;4.60;67.40
75931;DHT22;64609;47.052;15.462;2022-12-29T00:38:21;4.60;67.70
75931;DHT22;64609;47.052;15.462;2022-12-29T00:41:06;4.60;67.60
75931;DHT22;64609;47.052;15.462;2022-12-29T00:43:50;4.70;67.80
75931;DHT22;64609;47.052;15.462;2022-12-29T00:46:33;4.70;67.90
75931;DHT22;64609;47.052;15.462;2022-12-29T00:49:00;4.70;67.50
75931;DHT22;64609;47.052;15.462;2022-12-29T00:51:45;4.70;67.60
75931;DHT22;64609;47.052;15.462;2022-12-29T00:54:10;4.70;67.80
75931;DHT22;64609;47.052;15.462;2022-12-29T00:56:36;4.70;67.60
75931;DHT22;64609;47.052;15.462;2022-12-29T00:59:03;4.70;67.70
75931;DHT22;64609;47.052;15.462;2022-12-29T01:01:29;4.70;67.60
75931;DHT22;64609;47.052;15.462;2022-12-29T01:03:55;4.70;67.40
75931;DHT22;64609;47.052;15.462;2022-12-29T01:06:20;4.60;67.10
75931;DHT22;64609;47.052;15.462;2022-12-29T01:08:46;4.60;67.60
75931;DHT22;64609;47.052;15.462;2022-12-29T01:11:12;4.60;67.50
75931;DHT22;64609;47.052;15.462;2022-12-29T01:13:39;4.60;67.30
75931;DHT22;64609;47.052;15.462;2022-12-29T01:16:06;4.60;67.60
75931;DHT22;64609;47.052;15.462;2022-12-29T01:18:32;4.60;67.40
75931;DHT22;64609;47.052;15.462;2022-12-29T01:23:25;4.60;67.40
75931;DHT22;64609;47.052;15.462;2022-12-29T01:25:51;4.60;67.50
75931;DHT22;64609;47.052;15.462;2022-12-29T01:28:16;4.60;67.70
75931;DHT22;64609;47.052;15.462;2022-12-29T01:30:42;4.60;66.90
75931;DHT22;64609;47.052;15.462;2022-12-29T01:33:07;4.50;67.10
75931;DHT22;64609;47.052;15.462;2022-12-29T01:35:33;4.50;67.50
75931;DHT22;64609;47.052;15.462;2022-12-29T01:37:59;4.40;66.20
75931;DHT22;64609;47.052;15.462;2022-12-29T01:40:24;4.30;67.20
75931;DHT22;64609;47.052;15.462;2022-12-29T01:42:50;4.30;67.70
75931;DHT22;64609;47.052;15.462;2022-12-29T01:45:17;4.30;67.50
75931;DHT22;64609;47.052;15.462;2022-12-29T01:47:44;4.30;67.30
75931;DHT22;64609;47.052;15.462;2022-12-29T01:50:22;4.30;67.10
75931;DHT22;64609;47.052;15.462;2022-12-29T01:53:01;4.30;67.30
75931;DHT22;64609;47.052;15.462;2022-12-29T01:55:32;4.30;67.50
75931;DHT22;64609;47.052;15.462;2022-12-29T01:58:01;4.30;67.80
75931;DHT22;64609;47.052;15.462;2022-12-29T02:00:28;4.30;68.20
75931;DHT22;64609;47.052;15.462;2022-12-29T02:02:54;4.20;66.50
75931;DHT22;64609;47.052;15.462;2022-12-29T02:06:00;4.20;66.90
75931;DHT22;64609;47.052;15.462;2022-12-29T02:08:29;4.20;67.80
75931;DHT22;64609;47.052;15.462;2022-12-29T02:10:56;4.20;68.00
75931;DHT22;64609;47.052;15.462;2022-12-29T02:13:24;4.20;67.60
75931;DHT22;64609;47.052;15.462;2022-12-29T02:18:43;4.30;68.30
75931;DHT22;64609;47.052;15.462;2022-12-29T02:24:41;4.20;67.10
75931;DHT22;64609;47.052;15.462;2022-12-29T02:32:52;4.20;67.40
75931;DHT22;64609;47.052;15.462;2022-12-29T02:35:29;4.10;67.30
75931;DHT22;64609;47.052;15.462;2022-12-29T02:40:51;4.10;67.50
75931;DHT22;64609;47.052;15.462;2022-12-29T02:43:40;4.20;68.60
75931;DHT22;64609;47.052;15.462;2022-12-29T02:48:45;4.20;67.40
75931;DHT22;64609;47.052;15.462;2022-12-29T02:51:26;4.20;67.20
75931;DHT22;64609;47.052;15.462;2022-12-29T02:53:55;4.10;67.40
75931;DHT22;64609;47.052;15.462;2022-12-29T02:56:40;4.10;67.70
75931;DHT22;64609;47.052;15.462;2022-12-29T02:59:06;4.10;67.80
75931;DHT22;64609;47.052;15.462;2022-12-29T03:07:46;4.10;68.00
75931;DHT22;64609;47.052;15.462;2022-12-29T03:13:01;3.90;67.60
75931;DHT22;64609;47.052;15.462;2022-12-29T03:16:12;3.90;68.10
75931;DHT22;64609;47.052;15.462;2022-12-29T03:18:48;3.90;68.30
75931;DHT22;64609;47.052;15.462;2022-12-29T03:24:17;3.90;68.00
75931;DHT22;64609;47.052;15.462;2022-12-29T03:26:45;3.70;67.30
75931;DHT22;64609;47.052;15.462;2022-12-29T03:29:13;3.80;68.20
75931;DHT22;64609;47.052;15.462;2022-12-29T03:31:41;3.80;68.40
75931;DHT22;64609;47.052;15.462;2022-12-29T03:34:09;3.90;68.40
75931;DHT22;64609;47.052;15.462;2022-12-29T03:36:44;3.90;68.10
75931;DHT22;64609;47.052;15.462;2022-12-29T03:39:12;3.90;67.90
75931;DHT22;64609;47.052;15.462;2022-12-29T03:41:41;3.90;68.00
75931;DHT22;64609;47.052;15.462;2022-12-29T03:44:08;3.90;68.00
75931;DHT22;64609;47.052;15.462;2022-12-29T03:46:35;3.90;68.00
75931;DHT22;64609;47.052;15.462;2022-12-29T03:49:00;3.90;68.00
75931;DHT22;64609;47.052;15.462;2022-12-29T03:51:26;3.90;68.10
75931;DHT22;64609;47.052;15.462;2022-12-29T03:53:51;3.90;68.20
75931;DHT22;64609;47.052;15.462;2022-12-29T03:56:17;4.00;67.80
75931;DHT22;64609;47.052;15.462;2022-12-29T03:58:43;3.90;67.20
75931;DHT22;64609;47.052;15.462;2022-12-29T04:01:08;3.80;67.50
75931;DHT22;64609;47.052;15.462;2022-12-29T04:03:34;3.90;68.80
75931;DHT22;64609;47.052;15.462;2022-12-29T04:06:00;3.90;68.60
75931;DHT22;64609;47.052;15.462;2022-12-29T04:08:25;3.90;68.50
75931;DHT22;64609;47.052;15.462;2022-12-29T04:10:51;4.00;68.20
75931;DHT22;64609;47.052;15.462;2022-12-29T04:13:16;3.90;67.70
75931;DHT22;64609;47.052;15.462;2022-12-29T04:15:43;4.00;68.00
75931;DHT22;64609;47.052;15.462;2022-12-29T04:18:11;4.00;67.90
75931;DHT22;64609;47.052;15.462;2022-12-29T04:20:36;3.90;67.50
75931;DHT22;64609;47.052;15.462;2022-12-29T04:23:20;3.80;67.50
75931;DHT22;64609;47.052;15.462;2022-12-29T04:25:46;3.80;67.90
75931;DHT22;64609;47.052;15.462;2022-12-29T04:28:13;3.90;68.40
75931;DHT22;64609;47.052;15.462;2022-12-29T04:30:39;3.90;68.90
75931;DHT22;64609;47.052;15.462;2022-12-29T04:33:05;3.90;68.60
75931;DHT22;64609;47.052;15.462;2022-12-29T04:35:30;3.90;68.00
75931;DHT22;64609;47.052;15.462;2022-12-29T04:37:56;3.80;67.60
75931;DHT22;64609;47.052;15.462;2022-12-29T04:40:22;3.70;67.20
75931;DHT22;64609;47.052;15.462;2022-12-29T04:42:49;3.60;67.40
75931;DHT22;64609;47.052;15.462;2022-12-29T04:45:14;3.60;68.40
75931;DHT22;64609;47.052;15.462;2022-12-29T04:47:40;3.60;68.60
75931;DHT22;64609;47.052;15.462;2022-12-29T04:50:06;3.60;68.10
75931;DHT22;64609;47.052;15.462;2022-12-29T04:52:32;3.60;67.50
75931;DHT22;64609;47.052;15.462;2022-12-29T04:54:58;3.60;68.10
75931;DHT22;64609;47.052;15.462;2022-12-29T04:57:23;3.60;68.00
75931;DHT22;64609;47.052;15.462;2022-12-29T04:59:49;3.60;68.40
75931;DHT22;64609;47.052;15.462;2022-12-29T05:02:15;3.60;67.90
75931;DHT22;64609;47.052;15.462;2022-12-29T05:04:41;3.60;68.10
75931;DHT22;64609;47.052;15.462;2022-12-29T05:07:07;3.60;68.60
75931;DHT22;64609;47.052;15.462;2022-12-29T05:09:33;3.70;68.40
75931;DHT22;64609;47.052;15.462;2022-12-29T05:11:58;3.70;68.20
75931;DHT22;64609;47.052;15.462;2022-12-29T05:14:24;3.70;67.90
75931;DHT22;64609;47.052;15.462;2022-12-29T05:16:50;3.70;67.90
75931;DHT22;64609;47.052;15.462;2022-12-29T05:19:16;3.70;68.10
75931;DHT22;64609;47.052;15.462;2022-12-29T05:21:42;3.70;68.10
75931;DHT22;64609;47.052;15.462;2022-12-29T05:24:08;3.70;67.70
75931;DHT22;64609;47.052;15.462;2022-12-29T05:26:33;3.60;67.50
75931;DHT22;64609;47.052;15.462;2022-12-29T05:28:59;3.60;68.30
75931;DHT22;64609;47.052;15.462;2022-12-29T05:31:25;3.60;68.30
75931;DHT22;64609;47.052;15.462;2022-12-29T05:33:51;3.60;68.10
75931;DHT22;64609;47.052;15.462;2022-12-29T05:36:17;3.60;67.40
75931;DHT22;64609;47.052;15.462;2022-12-29T05:38:43;3.60;68.40
75931;DHT22;64609;47.052;15.462;2022-12-29T05:41:09;3.60;68.40
75931;DHT22;64609;47.052;15.462;2022-12-29T05:43:35;3.60;68.10
75931;DHT22;64609;47.052;15.462;2022-12-29T05:46:01;3.60;67.90
75931;DHT22;64609;47.052;15.462;2022-12-29T05:48:27;3.60;67.90
75931;DHT22;64609;47.052;15.462;2022-12-29T05:50:52;3.60;68.00
75931;DHT22;64609;47.052;15.462;2022-12-29T05:53:18;3.60;67.80
75931;DHT22;64609;47.052;15.462;2022-12-29T05:55:46;3.50;66.70
75931;DHT22;64609;47.052;15.462;2022-12-29T05:58:13;3.30;66.20
75931;DHT22;64609;47.052;15.462;2022-12-29T06:00:39;3.10;66.70
75931;DHT22;64609;47.052;15.462;2022-12-29T06:03:05;3.10;68.00
75931;DHT22;64609;47.052;15.462;2022-12-29T06:05:30;3.20;68.20
75931;DHT22;64609;47.052;15.462;2022-12-29T06:07:56;3.30;68.90
75931;DHT22;64609;47.052;15.462;2022-12-29T06:10:22;3.30;67.90
75931;DHT22;64609;47.052;15.462;2022-12-29T06:12:47;3.30;67.70
75931;DHT22;64609;47.052;15.462;2022-12-29T06:15:13;3.30;68.10
75931;DHT22;64609;47.052;15.462;2022-12-29T06:17:39;3.40;68.00
75931;DHT22;64609;47.052;15.462;2022-12-29T06:20:05;3.40;67.80
75931;DHT22;64609;47.052;15.462;2022-12-29T06:22:31;3.40;68.00
75931;DHT22;64609;47.052;15.462;2022-12-29T06:24:57;3.40;68.00
75931;DHT22;64609;47.052;15.462;2022-12-29T06:27:22;3.40;68.20
75931;DHT22;64609;47.052;15.462;2022-12-29T06:29:48;3.30;67.30
75931;DHT22;64609;47.052;15.462;2022-12-29T06:32:15;3.30;67.90
75931;DHT22;64609;47.052;15.462;2022-12-29T06:34:41;3.30;68.00
75931;DHT22;64609;47.052;15.462;2022-12-29T06:37:07;3.30;67.60
75931;DHT22;64609;47.052;15.462;2022-12-29T06:39:32;3.30;67.50
75931;DHT22;64609;47.052;15.462;2022-12-29T06:41:58;3.30;67.80
75931;DHT22;64609;47.052;15.462;2022-12-29T06:44:23;3.30;67.90
75931;DHT22;64609;47.052;15.462;2022-12-29T06:46:50;3.40;68.10
75931;DHT22;64609;47.052;15.462;2022-12-29T06:49:16;3.40;68.30
75931;DHT22;64609;47.052;15.462;2022-12-29T06:51:41;3.40;68.30
75931;DHT22;64609;47.052;15.462;2022-12-29T06:54:07;3.40;67.80
75931;DHT22;64609;47.052;15.462;2022-12-29T06:56:33;3.40;68.00
75931;DHT22;64609;47.052;15.462;2022-12-29T06:58:58;3.30;66.70
75931;DHT22;64609;47.052;15.462;2022-12-29T07:01:27;3.10;66.50
75931;DHT22;64609;47.052;15.462;2022-12-29T07:03:53;3.10;67.50
75931;DHT22;64609;47.052;15.462;2022-12-29T07:06:18;3.20;68.20
75931;DHT22;64609;47.052;15.462;2022-12-29T07:08:44;3.30;68.30
75931;DHT22;64609;47.052;15.462;2022-12-29T07:11:10;3.40;68.30
75931;DHT22;64609;47.052;15.462;2022-12-29T07:13:36;3.40;68.30
75931;DHT22;64609;47.052;15.462;2022-12-29T07:16:06;3.40;67.90
75931;DHT22;64609;47.052;15.462;2022-12-29T07:18:32;3.40;67.60
75931;DHT22;64609;47.052;15.462;2022-12-29T07:20:58;3.40;67.80
75931;DHT22;64609;47.052;15.462;2022-12-29T07:23:23;3.50;67.80
75931;DHT22;64609;47.052;15.462;2022-12-29T07:25:49;3.50;67.90
75931;DHT22;64609;47.052;15.462;2022-12-29T07:28:14;3.60;67.80
75931;DHT22;64609;47.052;15.462;2022-12-29T07:30:40;3.60;68.00
75931;DHT22;64609;47.052;15.462;2022-12-29T07:33:06;3.70;67.80
75931;DHT22;64609;47.052;15.462;2022-12-29T07:35:33;3.70;67.80
75931;DHT22;64609;47.052;15.462;2022-12-29T07:37:59;3.80;67.90
75931;DHT22;64609;47.052;15.462;2022-12-29T07:40:25;3.80;68.00
75931;DHT22;64609;47.052;15.462;2022-12-29T07:42:50;3.90;67.90
75931;DHT22;64609;47.052;15.462;2022-12-29T07:45:16;3.90;68.10
75931;DHT22;64609;47.052;15.462;2022-12-29T07:47:41;4.00;67.90
75931;DHT22;64609;47.052;15.462;2022-12-29T07:50:07;4.10;68.30
75931;DHT22;64609;47.052;15.462;2022-12-29T07:52:33;4.20;67.90
75931;DHT22;64609;47.052;15.462;2022-12-29T07:54:58;4.20;68.50
75931;DHT22;64609;47.052;15.462;2022-12-29T07:57:24;4.50;68.60
75931;DHT22;64609;47.052;15.462;2022-12-29T07:59:49;5.40;68.20
75931;DHT22;64609;47.052;15.462;2022-12-29T08:02:15;6.60;66.00
75931;DHT22;64609;47.052;15.462;2022-12-29T08:04:41;7.90;63.00
75931;DHT22;64609;47.052;15.462;2022-12-29T08:07:06;9.70;57.10
75931;DHT22;64609;47.052;15.462;2022-12-29T08:09:32;11.90;52.90
75931;DHT22;64609;47.052;15.462;2022-12-29T08:11:57;13.60;48.00
75931;DHT22;64609;47.052;15.462;2022-12-29T08:14:23;15.10;45.70
75931;DHT22;64609;47.052;15.462;2022-12-29T08:16:49;16.50;42.90
75931;DHT22;64609;47.052;15.462;2022-12-29T08:19:14;17.60;40.50
75931;DHT22;64609;47.052;15.462;2022-12-29T08:21:40;18.30;39.00
75931;DHT22;64609;47.052;15.462;2022-12-29T08:24:06;18.80;38.40
75931;DHT22;64609;47.052;15.462;2022-12-29T08:26:33;19.30;37.70
75931;DHT22;64609;47.052;15.462;2022-12-29T08:28:59;19.70;36.50
75931;DHT22;64609;47.052;15.462;2022-12-29T08:31:24;20.00;35.70
75931;DHT22;64609;47.052;15.462;2022-12-29T08:33:50;20.30;35.90
75931;DHT22;64609;47.052;15.462;2022-12-29T08:36:16;20.70;35.00
75931;DHT22;64609;47.052;15.462;2022-12-29T08:38:41;21.20;34.30
75931;DHT22;64609;47.052;15.462;2022-12-29T08:41:07;21.60;33.40
75931;DHT22;64609;47.052;15.462;2022-12-29T08:43:33;22.00;32.50
75931;DHT22;64609;47.052;15.462;2022-12-29T08:45:59;22.40;31.70
75931;DHT22;64609;47.052;15.462;2022-12-29T08:48:25;22.70;31.40
75931;DHT22;64609;47.052;15.462;2022-12-29T08:50:51;23.00;30.60
75931;DHT22;64609;47.052;15.462;2022-12-29T08:53:17;23.20;30.60
75931;DHT22;64609;47.052;15.462;2022-12-29T08:55:47;23.30;30.00
75931;DHT22;64609;47.052;15.462;2022-12-29T08:58:13;22.90;30.00
75931;DHT22;64609;47.052;15.462;2022-12-29T09:00:40;22.40;30.30
75931;DHT22;64609;47.052;15.462;2022-12-29T09:03:06;22.20;30.80
75931;DHT22;64609;47.052;15.462;2022-12-29T09:05:32;22.00;30.50
75931;DHT22;64609;47.052;15.462;2022-12-29T09:07:57;21.40;31.50
75931;DHT22;64609;47.052;15.462;2022-12-29T09:10:23;21.00;32.10
75931;DHT22;64609;47.052;15.462;2022-12-29T09:12:49;20.90;32.60
75931;DHT22;64609;47.052;15.462;2022-12-29T09:15:14;21.10;32.30
75931;DHT22;64609;47.052;15.462;2022-12-29T09:17:41;21.40;32.00
75931;DHT22;64609;47.052;15.462;2022-12-29T09:20:17;21.80;31.50
75931;DHT22;64609;47.052;15.462;2022-12-29T09:22:43;22.50;30.70
75931;DHT22;64609;47.052;15.462;2022-12-29T09:25:10;23.00;30.00
75931;DHT22;64609;47.052;15.462;2022-12-29T09:27:36;23.40;29.70
75931;DHT22;64609;47.052;15.462;2022-12-29T09:30:04;23.70;29.00
75931;DHT22;64609;47.052;15.462;2022-12-29T09:32:31;23.90;29.10
75931;DHT22;64609;47.052;15.462;2022-12-29T09:34:56;24.20;28.80
75931;DHT22;64609;47.052;15.462;2022-12-29T09:37:22;24.40;28.40
75931;DHT22;64609;47.052;15.462;2022-12-29T09:39:48;24.50;28.30
75931;DHT22;64609;47.052;15.462;2022-12-29T09:42:45;24.80;28.10
75931;DHT22;64609;47.052;15.462;2022-12-29T09:45:27;25.20;27.30
75931;DHT22;64609;47.052;15.462;2022-12-29T09:47:54;25.30;27.40
75931;DHT22;64609;47.052;15.462;2022-12-29T09:55:39;25.50;27.10
75931;DHT22;64609;47.052;15.462;2022-12-29T09:58:47;25.60;27.10
75931;DHT22;64609;47.052;15.462;2022-12-29T10:03:54;25.70;26.80
75931;DHT22;64609;47.052;15.462;2022-12-29T10:06:26;25.50;27.00
75931;DHT22;64609;47.052;15.462;2022-12-29T10:11:38;25.20;27.40
75931;DHT22;64609;47.052;15.462;2022-12-29T10:20:28;24.20;28.20
75931;DHT22;64609;47.052;15.462;2022-12-29T10:23:17;24.10;28.70
75931;DHT22;64609;47.052;15.462;2022-12-29T10:25:45;24.30;28.50
75931;DHT22;64609;47.052;15.462;2022-12-29T10:28:35;24.30;28.90
75931;DHT22;64609;47.052;15.462;2022-12-29T10:31:07;24.20;28.90
75931;DHT22;64609;47.052;15.462;2022-12-29T10:33:37;23.90;29.20
75931;DHT22;64609;47.052;15.462;2022-12-29T10:36:17;23.60;29.20
75931;DHT22;64609;47.052;15.462;2022-12-29T10:38:48;23.30;29.50
75931;DHT22;64609;47.052;15.462;2022-12-29T10:41:32;23.00;29.60
75931;DHT22;64609;47.052;15.462;2022-12-29T10:44:00;22.40;30.00
75931;DHT22;64609;47.052;15.462;2022-12-29T10:46:32;21.80;30.60
75931;DHT22;64609;47.052;15.462;2022-12-29T10:48:59;21.40;31.40
75931;DHT22;64609;47.052;15.462;2022-12-29T10:51:28;20.90;31.80
75931;DHT22;64609;47.052;15.462;2022-12-29T10:53:59;20.50;32.80
75931;DHT22;64609;47.052;15.462;2022-12-29T10:56:52;20.00;33.30
75931;DHT22;64609;47.052;15.462;2022-12-29T10:59:27;19.60;34.40
75931;DHT22;64609;47.052;15.462;2022-12-29T11:07:04;19.00;35.30
75931;DHT22;64609;47.052;15.462;2022-12-29T11:09:34;18.70;35.50
75931;DHT22;64609;47.052;15.462;2022-12-29T11:12:28;18.50;35.90
75931;DHT22;64609;47.052;15.462;2022-12-29T11:15:15;18.40;36.30
75931;DHT22;64609;47.052;15.462;2022-12-29T11:17:49;18.40;37.20
75931;DHT22;64609;47.052;15.462;2022-12-29T11:20:36;18.40;37.30
75931;DHT22;64609;47.052;15.462;2022-12-29T11:29:03;18.50;37.30
75931;DHT22;64609;47.052;15.462;2022-12-29T11:31:30;18.60;37.20
75931;DHT22;64609;47.052;15.462;2022-12-29T11:33:55;18.70;37.30
75931;DHT22;64609;47.052;15.462;2022-12-29T11:36:23;18.60;37.30
75931;DHT22;64609;47.052;15.462;2022-12-29T11:38:53;18.60;37.30
75931;DHT22;64609;47.052;15.462;2022-12-29T11:41:24;18.80;37.10
75931;DHT22;64609;47.052;15.462;2022-12-29T11:43:51;18.90;37.20
75931;DHT22;64609;47.052;15.462;2022-12-29T11:46:38;18.90;37.10
75931;DHT22;64609;47.052;15.462;2022-12-29T11:49:03;18.80;37.00
75931;DHT22;64609;47.052;15.462;2022-12-29T11:51:50;18.70;37.20
75931;DHT22;64609;47.052;15.462;2022-12-29T11:54:21;18.70;37.40
75931;DHT22;64609;47.052;15.462;2022-12-29T11:56:48;18.50;37.50
75931;DHT22;64609;47.052;15.462;2022-12-29T12:01:53;18.40;38.10
75931;DHT22;64609;47.052;15.462;2022-12-29T12:04:23;18.40;37.70
75931;DHT22;64609;47.052;15.462;2022-12-29T12:07:02;18.30;37.60
75931;DHT22;64609;47.052;15.462;2022-12-29T12:12:13;18.40;37.50
75931;DHT22;64609;47.052;15.462;2022-12-29T12:15:01;18.40;37.70
75931;DHT22;64609;47.052;15.462;2022-12-29T12:17:36;18.40;37.50
75931;DHT22;64609;47.052;15.462;2022-12-29T12:20:32;18.40;37.40
75931;DHT22;64609;47.052;15.462;2022-12-29T12:23:16;18.30;37.30
75931;DHT22;64609;47.052;15.462;2022-12-29T12:26:12;18.10;37.50
75931;DHT22;64609;47.052;15.462;2022-12-29T12:28:52;17.90;37.30
75931;DHT22;64609;47.052;15.462;2022-12-29T12:34:24;17.60;37.10
75931;DHT22;64609;47.052;15.462;2022-12-29T12:50:59;16.20;37.90
75931;DHT22;64609;47.052;15.462;2022-12-29T12:53:45;16.00;38.70
75931;DHT22;64609;47.052;15.462;2022-12-29T12:59:24;15.80;39.50
75931;DHT22;64609;47.052;15.462;2022-12-29T13:16:40;15.60;40.70
75931;DHT22;64609;47.052;15.462;2022-12-29T13:19:19;15.60;40.70
75931;DHT22;64609;47.052;15.462;2022-12-29T13:22:10;15.50;41.00
75931;DHT22;64609;47.052;15.462;2022-12-29T13:24:55;15.50;40.90
75931;DHT22;64609;47.052;15.462;2022-12-29T13:30:20;15.50;41.30
75931;DHT22;64609;47.052;15.462;2022-12-29T13:33:15;15.40;41.60
75931;DHT22;64609;47.052;15.462;2022-12-29T13:38:17;15.40;41.60
75931;DHT22;64609;47.052;15.462;2022-12-29T13:40:50;15.40;42.00
75931;DHT22;64609;47.052;15.462;2022-12-29T13:43:19;15.40;42.30
75931;DHT22;64609;47.052;15.462;2022-12-29T13:46:03;15.30;42.50
75931;DHT22;64609;47.052;15.462;2022-12-29T13:49:07;15.30;42.60
75931;DHT22;64609;47.052;15.462;2022-12-29T13:51:37;15.30;42.80
75931;DHT22;64609;47.052;15.462;2022-12-29T13:54:25;15.20;42.80
75931;DHT22;64609;47.052;15.462;2022-12-29T13:57:06;15.10;43.30
75931;DHT22;64609;47.052;15.462;2022-12-29T13:59:50;15.00;43.50
75931;DHT22;64609;47.052;15.462;2022-12-29T14:05:04;15.00;44.10
75931;DHT22;64609;47.052;15.462;2022-12-29T14:07:36;15.00;44.30
75931;DHT22;64609;47.052;15.462;2022-12-29T14:10:03;15.00;44.30
75931;DHT22;64609;47.052;15.462;2022-12-29T14:15:13;14.90;44.70
75931;DHT22;64609;47.052;15.462;2022-12-29T14:17:41;14.90;45.00
75931;DHT22;64609;47.052;15.462;2022-12-29T14:20:18;14.90;45.10
75931;DHT22;64609;47.052;15.462;2022-12-29T14:25:58;14.80;45.30
75931;DHT22;64609;47.052;15.462;2022-12-29T14:30:59;14.80;45.20
75931;DHT22;64609;47.052;15.462;2022-12-29T14:33:27;14.70;45.40
75931;DHT22;64609;47.052;15.462;2022-12-29T14:35:54;14.70;45.80
75931;DHT22;64609;47.052;15.462;2022-12-29T14:38:26;14.50;46.00
75931;DHT22;64609;47.052;15.462;2022-12-29T14:40:53;14.50;46.40
75931;DHT22;64609;47.052;15.462;2022-12-29T14:43:38;14.40;46.50
75931;DHT22;64609;47.052;15.462;2022-12-29T14:46:08;14.40;46.70
75931;DHT22;64609;47.052;15.462;2022-12-29T14:48:35;14.40;47.10
75931;DHT22;64609;47.052;15.462;2022-12-29T14:51:15;14.30;47.00
75931;DHT22;64609;47.052;15.462;2022-12-29T14:53:48;14.30;47.10
75931;DHT22;64609;47.052;15.462;2022-12-29T14:56:19;14.20;47.20
75931;DHT22;64609;47.052;15.462;2022-12-29T14:58:55;14.10;47.10
75931;DHT22;64609;47.052;15.462;2022-12-29T15:01:38;14.00;47.50
75931;DHT22;64609;47.052;15.462;2022-12-29T15:04:23;13.90;47.90
75931;DHT22;64609;47.052;15.462;2022-12-29T15:06:50;13.70;47.80
75931;DHT22;64609;47.052;15.462;2022-12-29T15:09:23;13.60;49.40
75931;DHT22;64609;47.052;15.462;2022-12-29T15:11:58;13.50;48.90
75931;DHT22;64609;47.052;15.462;2022-12-29T15:14:32;13.40;48.80
75931;DHT22;64609;47.052;15.462;2022-12-29T15:16:58;13.20;48.80
75931;DHT22;64609;47.052;15.462;2022-12-29T15:19:25;13.10;49.10
75931;DHT22;64609;47.052;15.462;2022-12-29T15:21:55;13.00;49.70
75931;DHT22;64609;47.052;15.462;2022-12-29T15:24:21;12.90;50.10
75931;DHT22;64609;47.052;15.462;2022-12-29T15:26:49;12.80;50.20
75931;DHT22;64609;47.052;15.462;2022-12-29T15:31:58;12.50;50.70
75931;DHT22;64609;47.052;15.462;2022-12-29T15:34:30;12.50;51.10
75931;DHT22;64609;47.052;15.462;2022-12-29T15:36:55;12.40;51.00
75931;DHT22;64609;47.052;15.462;2022-12-29T15:39:29;12.20;51.40
75931;DHT22;64609;47.052;15.462;2022-12-29T15:44:53;11.80;51.60
75931;DHT22;64609;47.052;15.462;2022-12-29T15:47:25;11.60;51.90
75931;DHT22;64609;47.052;15.462;2022-12-29T15:49:53;11.50;52.80
75931;DHT22;64609;47.052;15.462;2022-12-29T15:52:22;11.50;53.50
75931;DHT22;64609;47.052;15.462;2022-12-29T15:54:50;11.40;53.30
75931;DHT22;64609;47.052;15.462;2022-12-29T15:57:38;11.30;53.40
75931;DHT22;64609;47.052;15.462;2022-12-29T16:00:46;11.20;53.60
75931;DHT22;64609;47.052;15.462;2022-12-29T16:03:13;11.00;53.80
75931;DHT22;64609;47.052;15.462;2022-12-29T16:05:40;10.90;54.60
75931;DHT22;64609;47.052;15.462;2022-12-29T16:08:32;10.80;54.30
75931;DHT22;64609;47.052;15.462;2022-12-29T16:11:00;10.70;54.80
75931;DHT22;64609;47.052;15.462;2022-12-29T16:13:33;10.70;54.90
75931;DHT22;64609;47.052;15.462;2022-12-29T16:16:09;10.60;55.10
75931;DHT22;64609;47.052;15.462;2022-12-29T16:18:37;10.50;55.00
75931;DHT22;64609;47.052;15.462;2022-12-29T16:21:05;10.40;55.50
75931;DHT22;64609;47.052;15.462;2022-12-29T16:23:32;10.30;55.40
75931;DHT22;64609;47.052;15.462;2022-12-29T16:26:01;10.20;55.50
75931;DHT22;64609;47.052;15.462;2022-12-29T16:28:40;10.10;56.10
75931;DHT22;64609;47.052;15.462;2022-12-29T16:31:23;10.00;55.90
75931;DHT22;64609;47.052;15.462;2022-12-29T16:33:50;10.00;56.50
75931;DHT22;64609;47.052;15.462;2022-12-29T16:36:31;9.90;56.40
75931;DHT22;64609;47.052;15.462;2022-12-29T16:39:20;9.80;56.60
75931;DHT22;64609;47.052;15.462;2022-12-29T16:41:50;9.70;56.80
75931;DHT22;64609;47.052;15.462;2022-12-29T16:49:35;9.60;57.60
75931;DHT22;64609;47.052;15.462;2022-12-29T16:52:10;9.50;58.30
75931;DHT22;64609;47.052;15.462;2022-12-29T16:54:36;9.50;57.90
75931;DHT22;64609;47.052;15.462;2022-12-29T16:57:04;9.40;57.60
75931;DHT22;64609;47.052;15.462;2022-12-29T16:59:40;9.30;58.30
75931;DHT22;64609;47.052;15.462;2022-12-29T17:02:15;9.30;58.40
75931;DHT22;64609;47.052;15.462;2022-12-29T17:04:41;9.20;58.20
75931;DHT22;64609;47.052;15.462;2022-12-29T17:07:16;9.20;58.30
75931;DHT22;64609;47.052;15.462;2022-12-29T17:09:42;9.10;58.30
75931;DHT22;64609;47.052;15.462;2022-12-29T17:12:21;9.00;58.80
75931;DHT22;64609;47.052;15.462;2022-12-29T17:14:52;9.00;59.10
75931;DHT22;64609;47.052;15.462;2022-12-29T17:17:34;9.00;59.20
75931;DHT22;64609;47.052;15.462;2022-12-29T17:20:19;9.00;58.80
75931;DHT22;64609;47.052;15.462;2022-12-29T17:22:45;9.00;58.90
75931;DHT22;64609;47.052;15.462;2022-12-29T17:25:13;9.00;58.80
75931;DHT22;64609;47.052;15.462;2022-12-29T17:27:46;9.00;58.90
75931;DHT22;64609;47.052;15.462;2022-12-29T17:30:15;9.00;58.80
75931;DHT22;64609;47.052;15.462;2022-12-29T17:32:43;9.00;58.80
75931;DHT22;64609;47.052;15.462;2022-12-29T17:35:15;9.00;59.80
75931;DHT22;64609;47.052;15.462;2022-12-29T17:37:41;9.10;58.90
75931;DHT22;64609;47.052;15.462;2022-12-29T17:40:17;9.10;58.70
75931;DHT22;64609;47.052;15.462;2022-12-29T17:42:45;9.20;58.90
75931;DHT22;64609;47.052;15.462;2022-12-29T17:45:20;9.20;58.80
75931;DHT22;64609;47.052;15.462;2022-12-29T17:47:46;9.20;58.70
75931;DHT22;64609;47.052;15.462;2022-12-29T17:50:17;9.20;58.40
75931;DHT22;64609;47.052;15.462;2022-12-29T17:52:47;9.30;58.20
75931;DHT22;64609;47.052;15.462;2022-12-29T17:55:17;9.20;57.90